Time;durP1;ratioP1;P1;durP2;ratioP2;P2;SDS_P1;SDS_P2;PMS_P1;PMS_P2;Temp;Humidity;BMP_temperature;BMP_pressure;BME280_temperature;BME280_humidity;BME280_pressure;Samples;Min_cycle;Max_cycle;Signal;HPM_P1;HPM_P2
2022/10/29 00:00:05;;;;;;;12.37;11.07;;;;;;;-144.22;100.00;60274.75;6258282;28;20218;-41
2022/10/29 00:03:09;;;;;;;12.83;10.70;;;;;;;-144.22;100.00;60274.75;6256891;28;20252;-40
2022/10/29 00:06:12;;;;;;;12.53;10.60;;;;;;;-144.22;100.00;60274.75;6223802;28;20257;-40
2022/10/29 00:09:14;;;;;;;10.27;9.17;;;;;;;-144.22;100.00;60274.75;6258446;28;20219;-41
2022/10/29 00:12:16;;;;;;;10.90;9.20;;;;;;;-144.22;100.00;60274.75;6257707;28;20243;-43
2022/10/29 00:15:19;;;;;;;10.37;9.27;;;;;;;-144.22;100.00;60274.75;6258694;28;20226;-41
2022/10/29 00:18:21;;;;;;;9.30;8.23;;;;;;;-144.22;100.00;60274.75;6256145;28;20595;-42
2022/10/29 00:21:24;;;;;;;14.90;11.27;;;;;;;-144.22;100.00;60274.75;6238990;28;20261;-41
2022/10/29 00:24:27;;;;;;;16.10;11.77;;;;;;;-144.22;100.00;60274.75;6238925;28;20281;-41
2022/10/29 00:27:29;;;;;;;10.87;9.73;;;;;;;-144.22;100.00;60274.75;6256634;28;20820;-41
2022/10/29 00:30:34;;;;;;;12.30;11.00;;;;;;;-144.22;100.00;60274.75;6233438;28;20311;-42
2022/10/29 00:33:37;;;;;;;11.73;9.93;;;;;;;-144.22;100.00;60274.75;6232634;28;20297;-41
2022/10/29 00:36:39;;;;;;;11.97;9.93;;;;;;;-144.22;100.00;60274.75;6231924;28;20255;-41
2022/10/29 00:39:41;;;;;;;10.00;9.00;;;;;;;-144.22;100.00;60274.75;6232268;28;20290;-43
2022/10/29 00:42:44;;;;;;;11.20;9.80;;;;;;;-144.22;100.00;60274.75;6231632;28;20222;-41
2022/10/29 00:45:54;;;;;;;10.47;9.27;;;;;;;-144.22;100.00;60274.75;6230570;28;20666;-42
2022/10/29 00:48:58;;;;;;;10.27;9.17;;;;;;;-144.22;100.00;60274.75;6232396;28;20319;-42
2022/10/29 00:52:03;;;;;;;9.63;8.20;;;;;;;-144.22;100.00;60274.75;6234705;28;20258;-41
2022/10/29 00:55:07;;;;;;;8.30;7.43;;;;;;;-144.22;100.00;60274.75;6231785;28;20311;-41
2022/10/29 00:58:10;;;;;;;9.63;8.03;;;;;;;-144.22;100.00;60274.75;6223438;28;20271;-41
2022/10/29 01:01:13;;;;;;;9.93;8.93;;;;;;;-144.22;100.00;60274.75;6235276;28;20740;-41
2022/10/29 01:04:17;;;;;;;9.33;8.30;;;;;;;-144.22;100.00;60274.75;6245685;28;20317;-41
2022/10/29 01:07:21;;;;;;;10.03;9.03;;;;;;;-144.22;100.00;60274.75;6231183;28;20263;-41
2022/10/29 01:10:36;;;;;;;9.70;8.70;;;;;;;-144.22;100.00;60274.75;6231451;28;20362;-41
2022/10/29 01:14:21;;;;;;;9.70;8.80;;;;;;;-144.22;100.00;60274.75;6231927;28;20250;-42
2022/10/29 01:17:38;;;;;;;9.50;8.33;;;;;;;-144.22;100.00;60274.75;6231268;28;20235;-41
2022/10/29 01:21:08;;;;;;;10.93;9.63;;;;;;;-144.22;100.00;60274.75;6231602;28;20231;-41
2022/10/29 01:24:25;;;;;;;9.60;8.60;;;;;;;-144.22;100.00;60274.75;6230763;28;20227;-42
2022/10/29 01:27:32;;;;;;;10.07;9.07;;;;;;;-144.22;100.00;60274.75;6231355;28;20239;-41
2022/10/29 01:31:00;;;;;;;10.83;9.73;;;;;;;-144.22;100.00;60274.75;6213824;28;20238;-41
2022/10/29 01:34:14;;;;;;;9.80;8.70;;;;;;;-144.22;100.00;60274.75;6206981;28;20245;-41
2022/10/29 01:37:24;;;;;;;13.27;9.20;;;;;;;-144.22;100.00;60274.75;6206643;28;20249;-41
2022/10/29 01:40:51;;;;;;;9.03;8.03;;;;;;;-144.22;100.00;60274.75;6229939;28;20245;-41
2022/10/29 01:44:03;;;;;;;9.27;8.30;;;;;;;-144.22;100.00;60274.75;6226710;28;20252;-41
2022/10/29 01:47:14;;;;;;;10.50;9.07;;;;;;;-144.22;100.00;60274.75;6212839;28;20235;-42
2022/10/29 01:50:20;;;;;;;11.60;9.90;;;;;;;-144.22;100.00;60274.75;6229979;28;20234;-41
2022/10/29 01:53:24;;;;;;;10.03;8.97;;;;;;;-144.22;100.00;60274.75;6229600;28;20242;-41
2022/10/29 01:56:26;;;;;;;9.00;8.10;;;;;;;-144.22;100.00;60274.75;6230515;28;20238;-41
2022/10/29 01:59:31;;;;;;;10.00;9.00;;;;;;;-144.22;100.00;60274.75;6231326;28;20239;-41
2022/10/29 02:03:08;;;;;;;8.17;7.30;;;;;;;-144.22;100.00;60274.75;6230005;28;20268;-42
2022/10/29 02:06:39;;;;;;;7.47;6.67;;;;;;;-144.22;100.00;60274.75;6229096;28;20231;-41
2022/10/29 02:10:00;;;;;;;7.73;6.93;;;;;;;-144.22;100.00;60274.75;6229785;28;20266;-42
2022/10/29 02:13:02;;;;;;;7.10;6.30;;;;;;;-144.22;100.00;60274.75;6229959;28;20240;-41
2022/10/29 02:16:07;;;;;;;8.90;8.00;;;;;;;-144.22;100.00;60274.75;6228993;28;20227;-41
2022/10/29 02:19:09;;;;;;;7.20;6.50;;;;;;;-144.22;100.00;60274.75;6229211;28;20308;-41
2022/10/29 02:22:11;;;;;;;7.47;6.77;;;;;;;-144.22;100.00;60274.75;6229493;28;20258;-41
2022/10/29 02:25:13;;;;;;;6.67;6.07;;;;;;;-144.22;100.00;60274.75;6229545;28;20249;-41
2022/10/29 02:28:16;;;;;;;7.63;6.67;;;;;;;-144.22;100.00;60274.75;6235404;28;20242;-42
2022/10/29 02:31:18;;;;;;;6.20;5.60;;;;;;;-144.22;100.00;60274.75;6253467;28;20332;-42
2022/10/29 02:34:20;;;;;;;8.57;7.37;;;;;;;-144.22;100.00;60274.75;6254114;28;20329;-41
2022/10/29 02:37:22;;;;;;;7.57;6.87;;;;;;;-144.22;100.00;60274.75;6236758;28;20774;-43
2022/10/29 02:40:24;;;;;;;6.87;6.17;;;;;;;-144.22;100.00;60274.75;6253593;28;20313;-43
2022/10/29 02:43:26;;;;;;;6.27;5.67;;;;;;;-144.22;100.00;60274.75;6254524;28;20325;-42
2022/10/29 02:46:29;;;;;;;9.40;7.33;;;;;;;-144.22;100.00;60274.75;6254763;28;20248;-41
2022/10/29 02:49:31;;;;;;;8.20;7.40;;;;;;;-144.22;100.00;60274.75;6254167;28;20242;-41
2022/10/29 02:52:33;;;;;;;7.87;7.07;;;;;;;-144.22;100.00;60274.75;6254170;28;20264;-42
2022/10/29 02:55:35;;;;;;;8.60;7.70;;;;;;;-144.22;100.00;60274.75;6254265;28;20253;-41
2022/10/29 02:58:38;;;;;;;8.07;7.27;;;;;;;-144.22;100.00;60274.75;6254190;28;20246;-44
2022/10/29 03:01:40;;;;;;;7.90;7.10;;;;;;;-144.22;100.00;60274.75;6253630;28;20249;-41
2022/10/29 03:04:43;;;;;;;8.53;7.67;;;;;;;-144.22;100.00;60274.75;6253796;28;20690;-42
2022/10/29 03:07:45;;;;;;;8.87;7.97;;;;;;;-144.22;100.00;60274.75;6257733;28;20284;-41
2022/10/29 03:10:48;;;;;;;16.90;7.63;;;;;;;-144.22;100.00;60274.75;6259092;28;20229;-42
2022/10/29 03:13:50;;;;;;;7.40;6.70;;;;;;;-144.22;100.00;60274.75;6258593;28;20240;-41
2022/10/29 03:16:52;;;;;;;7.90;7.10;;;;;;;-144.22;100.00;60274.75;6259353;28;20322;-41
2022/10/29 03:19:54;;;;;;;8.37;7.07;;;;;;;-144.22;100.00;60274.75;6258919;28;20317;-44
2022/10/29 03:22:56;;;;;;;8.07;6.40;;;;;;;-144.22;100.00;60274.75;6258548;28;20626;-42
2022/10/29 03:25:58;;;;;;;7.60;6.80;;;;;;;-144.22;100.00;60274.75;6257756;28;20234;-43
2022/10/29 03:29:00;;;;;;;7.00;6.30;;;;;;;-144.22;100.00;60274.75;6258260;28;20268;-42
2022/10/29 03:32:03;;;;;;;7.00;6.37;;;;;;;-144.22;100.00;60274.75;6258333;28;20237;-42
2022/10/29 03:35:06;;;;;;;8.20;7.40;;;;;;;-144.22;100.00;60274.75;6257957;28;20259;-41
2022/10/29 03:38:08;;;;;;;6.80;6.13;;;;;;;-144.22;100.00;60274.75;6257680;28;20230;-41
2022/10/29 03:41:10;;;;;;;8.33;7.43;;;;;;;-144.22;100.00;60274.75;6258653;28;20587;-42
2022/10/29 03:44:12;;;;;;;6.97;6.30;;;;;;;-144.22;100.00;60274.75;6257039;28;20294;-40
2022/10/29 03:47:14;;;;;;;6.70;6.03;;;;;;;-144.22;100.00;60274.75;6256970;28;20235;-43
2022/10/29 03:50:17;;;;;;;7.97;7.17;;;;;;;-144.22;100.00;60274.75;6257717;28;20608;-41
2022/10/29 03:53:19;;;;;;;6.97;6.27;;;;;;;-144.22;100.00;60274.75;6257313;28;20257;-41
2022/10/29 03:56:21;;;;;;;6.13;5.53;;;;;;;-144.22;100.00;60274.75;6257367;28;20231;-41
2022/10/29 03:59:23;;;;;;;7.03;6.33;;;;;;;-144.22;100.00;60274.75;6257536;28;20256;-41
2022/10/29 04:02:26;;;;;;;5.83;5.17;;;;;;;-144.22;100.00;60274.75;6256979;28;20701;-42
2022/10/29 04:05:29;;;;;;;5.63;5.13;;;;;;;-144.22;100.00;60274.75;6257286;28;20234;-41
2022/10/29 04:08:31;;;;;;;6.83;6.13;;;;;;;-144.22;100.00;60274.75;6256472;28;20315;-41
2022/10/29 04:11:33;;;;;;;6.00;5.40;;;;;;;-144.22;100.00;60274.75;6258493;28;20267;-41
2022/10/29 04:14:36;;;;;;;5.93;5.33;;;;;;;-144.22;100.00;60274.75;6256946;28;20838;-40
2022/10/29 04:17:50;;;;;;;6.37;5.77;;;;;;;-144.22;100.00;60274.75;6256645;28;20610;-41
2022/10/29 04:20:55;;;;;;;4.87;4.37;;;;;;;-144.22;100.00;60274.75;6257256;28;20234;-41
2022/10/29 04:24:17;;;;;;;4.77;4.37;;;;;;;-144.22;100.00;60274.75;6256602;28;20211;-41
2022/10/29 04:27:39;;;;;;;4.87;4.37;;;;;;;-144.22;100.00;60274.75;6257598;28;20246;-40
2022/10/29 04:31:05;;;;;;;5.40;4.90;;;;;;;-144.22;100.00;60274.75;6242295;28;20598;-41
2022/10/29 04:34:07;;;;;;;4.70;4.30;;;;;;;-144.22;100.00;60274.75;6262098;28;20263;-43
2022/10/29 04:37:09;;;;;;;6.23;5.63;;;;;;;-144.22;100.00;60274.75;6261927;28;20260;-42
2022/10/29 04:40:12;;;;;;;4.87;4.47;;;;;;;-144.22;100.00;60274.75;6261433;28;20250;-41
2022/10/29 04:43:14;;;;;;;6.23;5.63;;;;;;;-144.22;100.00;60274.75;6262197;28;20256;-42
2022/10/29 04:46:16;;;;;;;5.03;4.53;;;;;;;-144.22;100.00;60274.75;6262310;28;20279;-41
2022/10/29 04:49:18;;;;;;;4.87;4.47;;;;;;;-144.22;100.00;60274.75;6261094;28;20237;-40
2022/10/29 04:52:21;;;;;;;4.77;4.37;;;;;;;-144.22;100.00;60274.75;6256515;28;20329;-41
2022/10/29 04:55:23;;;;;;;5.10;4.60;;;;;;;-144.22;100.00;60274.75;6255474;28;20257;-44
2022/10/29 04:58:25;;;;;;;5.23;4.73;;;;;;;-144.22;100.00;60274.75;6255934;28;20241;-43
2022/10/29 05:01:27;;;;;;;5.40;4.90;;;;;;;-144.22;100.00;60274.75;6256121;28;20315;-41
2022/10/29 05:04:29;;;;;;;5.07;4.57;;;;;;;-144.22;100.00;60274.75;6256462;28;20233;-41
2022/10/29 05:07:31;;;;;;;5.30;4.80;;;;;;;-144.22;100.00;60274.75;6256304;28;20236;-42
2022/10/29 05:10:37;;;;;;;5.30;4.80;;;;;;;-144.22;100.00;60274.75;6256888;28;20271;-41
2022/10/29 05:13:39;;;;;;;5.10;4.60;;;;;;;-144.22;100.00;60274.75;6256297;28;20251;-42
2022/10/29 05:16:41;;;;;;;5.93;5.33;;;;;;;-144.22;100.00;60274.75;6255936;28;20242;-41
2022/10/29 05:19:43;;;;;;;5.43;4.93;;;;;;;-144.22;100.00;60274.75;6255855;28;20253;-41
2022/10/29 05:22:45;;;;;;;6.10;5.60;;;;;;;-144.22;100.00;60274.75;6254981;28;20234;-41
2022/10/29 05:25:48;;;;;;;6.80;6.20;;;;;;;-144.22;100.00;60274.75;6255423;28;20233;-40
2022/10/29 05:28:50;;;;;;;6.00;5.40;;;;;;;-144.22;100.00;60274.75;6255239;28;20261;-41
2022/10/29 05:31:53;;;;;;;5.63;5.13;;;;;;;-144.22;100.00;60274.75;6255779;28;20244;-41
2022/10/29 05:34:55;;;;;;;5.43;4.93;;;;;;;-144.22;100.00;60274.75;6255245;28;20239;-41
2022/10/29 05:37:57;;;;;;;5.57;5.07;;;;;;;-144.22;100.00;60274.75;6256315;28;20237;-41
2022/10/29 05:41:00;;;;;;;7.10;6.40;;;;;;;-144.22;100.00;60274.75;6255849;28;20240;-41
2022/10/29 05:44:02;;;;;;;5.83;5.23;;;;;;;-144.22;100.00;60274.75;6255979;28;20844;-40
2022/10/29 05:47:05;;;;;;;6.57;5.83;;;;;;;-144.22;100.00;60274.75;6237392;28;20261;-41
2022/10/29 05:50:09;;;;;;;5.93;5.43;;;;;;;-144.22;100.00;60274.75;6255240;28;20229;-42
2022/10/29 05:53:13;;;;;;;6.20;5.60;;;;;;;-144.22;100.00;60274.75;6255002;28;20595;-41
2022/10/29 05:56:15;;;;;;;6.10;5.50;;;;;;;-144.22;100.00;60274.75;6253719;28;20238;-43
2022/10/29 05:59:18;;;;;;;5.50;5.00;;;;;;;-144.22;100.00;60274.75;6255136;28;20702;-42
2022/10/29 06:02:21;;;;;;;6.00;5.40;;;;;;;-144.22;100.00;60274.75;6254106;28;20240;-42
2022/10/29 06:05:24;;;;;;;5.90;5.23;;;;;;;-144.22;100.00;60274.75;6256697;28;20229;-41
2022/10/29 06:08:26;;;;;;;5.37;4.93;;;;;;;-144.22;100.00;60274.75;6254496;28;20321;-41
2022/10/29 06:11:29;;;;;;;5.63;5.13;;;;;;;-144.22;100.00;60274.75;6253966;28;20236;-42
2022/10/29 06:14:32;;;;;;;4.90;4.47;;;;;;;-144.22;100.00;60274.75;6254403;28;20305;-42
2022/10/29 06:17:40;;;;;;;4.80;4.30;;;;;;;-144.22;100.00;60274.75;6253500;28;20240;-42
2022/10/29 06:20:44;;;;;;;4.07;3.73;;;;;;;-144.22;100.00;60274.75;6253509;28;20253;-41
2022/10/29 06:23:49;;;;;;;5.47;4.40;;;;;;;-144.22;100.00;60274.75;6233867;28;20252;-42
2022/10/29 06:26:54;;;;;;;4.87;4.43;;;;;;;-144.22;100.00;60274.75;6252085;28;20392;-42
2022/10/29 06:29:57;;;;;;;3.90;3.60;;;;;;;-144.22;100.00;60274.75;6252833;28;20239;-42
2022/10/29 06:33:03;;;;;;;3.60;3.30;;;;;;;-144.22;100.00;60274.75;6253237;28;20249;-41
2022/10/29 06:36:06;;;;;;;4.90;4.40;;;;;;;-144.22;100.00;60274.75;6253566;28;20594;-41
2022/10/29 06:39:09;;;;;;;4.43;4.03;;;;;;;-144.22;100.00;60274.75;6253616;28;20219;-41
2022/10/29 06:42:11;;;;;;;5.37;4.73;;;;;;;-144.22;100.00;60274.75;6253282;28;20244;-41
2022/10/29 06:45:14;;;;;;;3.70;3.40;;;;;;;-144.22;100.00;60274.75;6252334;28;20678;-41
2022/10/29 06:48:18;;;;;;;4.40;4.00;;;;;;;-144.22;100.00;60274.75;6236195;28;20325;-41
2022/10/29 06:51:23;;;;;;;5.23;4.70;;;;;;;-144.22;100.00;60274.75;6252319;28;20637;-41
2022/10/29 06:54:26;;;;;;;3.77;3.47;;;;;;;-144.22;100.00;60274.75;6255217;28;20233;-40
2022/10/29 06:57:29;;;;;;;4.50;4.10;;;;;;;-144.22;100.00;60274.75;6252422;28;20233;-41
2022/10/29 07:00:34;;;;;;;4.33;3.93;;;;;;;-144.22;100.00;60274.75;6252301;28;20238;-40
2022/10/29 07:03:37;;;;;;;4.10;3.80;;;;;;;-144.22;100.00;60274.75;6273126;28;20308;-41
2022/10/29 07:06:41;;;;;;;3.97;3.67;;;;;;;-144.22;100.00;60274.75;6253441;28;20243;-40
2022/10/29 07:09:48;;;;;;;4.13;3.80;;;;;;;-144.22;100.00;60274.75;6253011;28;20713;-40
2022/10/29 07:12:52;;;;;;;2.80;2.60;;;;;;;-144.22;100.00;60274.75;6252911;28;20831;-41
2022/10/29 07:15:54;;;;;;;4.00;3.70;;;;;;;-144.22;100.00;60274.75;6235576;28;20225;-40
2022/10/29 07:18:56;;;;;;;4.20;3.90;;;;;;;-144.22;100.00;60274.75;6252886;28;20239;-41
2022/10/29 07:21:58;;;;;;;3.60;3.30;;;;;;;-144.22;100.00;60274.75;6253460;28;20241;-40
2022/10/29 07:25:01;;;;;;;3.67;3.10;;;;;;;-144.22;100.00;60274.75;6252966;28;20226;-40
2022/10/29 07:28:20;;;;;;;3.53;3.30;;;;;;;-144.22;100.00;60274.75;6251966;28;20237;-40
2022/10/29 07:31:24;;;;;;;3.90;3.60;;;;;;;-144.22;100.00;60274.75;6235023;28;20231;-40
2022/10/29 07:34:29;;;;;;;3.63;3.33;;;;;;;-144.22;100.00;60274.75;6252277;28;20242;-40
2022/10/29 07:37:34;;;;;;;3.90;3.60;;;;;;;-144.22;100.00;60274.75;6253050;28;20246;-40
2022/10/29 07:40:38;;;;;;;4.60;4.17;;;;;;;-144.22;100.00;60274.75;6252549;28;20308;-40
2022/10/29 07:43:42;;;;;;;4.90;4.40;;;;;;;-144.22;100.00;60274.75;6253547;28;20373;-40
2022/10/29 07:46:44;;;;;;;4.97;4.53;;;;;;;-144.22;100.00;60274.75;6253365;28;20226;-40
2022/10/29 07:49:50;;;;;;;4.00;3.70;;;;;;;-144.22;100.00;60274.75;6253407;28;20239;-40
2022/10/29 07:53:00;;;;;;;5.37;4.33;;;;;;;-144.22;100.00;60274.75;6259026;28;20328;-40
2022/10/29 07:56:03;;;;;;;4.77;4.27;;;;;;;-144.22;100.00;60274.75;6258536;28;20326;-40
2022/10/29 07:59:08;;;;;;;5.20;4.40;;;;;;;-144.22;100.00;60274.75;6257854;28;20246;-41
2022/10/29 08:02:10;;;;;;;4.03;3.63;;;;;;;-144.22;100.00;60274.75;6257652;28;20599;-42
2022/10/29 08:05:13;;;;;;;4.40;4.00;;;;;;;-144.22;100.00;60274.75;6257770;28;20241;-40
2022/10/29 08:08:16;;;;;;;4.70;4.30;;;;;;;-144.22;100.00;60274.75;6257016;28;20740;-40
2022/10/29 08:11:18;;;;;;;4.20;3.80;;;;;;;-144.22;100.00;60274.75;6257006;28;20634;-40
2022/10/29 08:14:21;;;;;;;4.40;4.00;;;;;;;-144.22;100.00;60274.75;6271752;28;20238;-40
2022/10/29 08:17:23;;;;;;;4.93;4.43;;;;;;;-144.22;100.00;60274.75;6256915;28;20238;-40
2022/10/29 08:20:27;;;;;;;4.00;3.67;;;;;;;-144.22;100.00;60274.75;6232272;28;20246;-40
2022/10/29 08:23:30;;;;;;;4.73;4.33;;;;;;;-144.22;100.00;60274.75;6253620;28;20249;-40
2022/10/29 08:26:32;;;;;;;5.13;4.73;;;;;;;-144.22;100.00;60274.75;6257945;28;20670;-40
2022/10/29 08:29:34;;;;;;;5.03;4.60;;;;;;;-144.22;100.00;60274.75;6255834;28;20246;-40
2022/10/29 08:32:46;;;;;;;4.90;4.50;;;;;;;-144.22;100.00;60274.75;6256785;28;20246;-40
2022/10/29 08:35:51;;;;;;;4.17;3.87;;;;;;;-144.22;100.00;60274.75;6255847;28;20240;-41
2022/10/29 08:38:54;;;;;;;4.40;4.00;;;;;;;-144.22;100.00;60274.75;6255787;28;20239;-41
2022/10/29 08:42:39;;;;;;;4.40;4.00;;;;;;;-144.22;100.00;60274.75;6256886;28;20219;-40
2022/10/29 08:45:53;;;;;;;4.73;4.33;;;;;;;-144.22;100.00;60274.75;6254876;28;20239;-40
2022/10/29 08:49:09;;;;;;;4.20;3.90;;;;;;;-144.22;100.00;60274.75;6255558;28;20641;-44
2022/10/29 08:52:21;;;;;;;4.33;3.93;;;;;;;-144.22;100.00;60274.75;6254655;28;20235;-43
2022/10/29 08:55:29;;;;;;;4.77;4.27;;;;;;;-144.22;100.00;60274.75;6256441;28;20235;-42
2022/10/29 08:58:58;;;;;;;3.57;3.27;;;;;;;-144.22;100.00;60274.75;6254485;28;20258;-42
2022/10/29 09:02:00;;;;;;;3.87;3.57;;;;;;;-144.22;100.00;60274.75;6235127;28;20230;-44
2022/10/29 09:05:04;;;;;;;4.53;4.13;;;;;;;-144.22;100.00;60274.75;6238189;28;20223;-44
2022/10/29 09:08:42;;;;;;;3.97;3.57;;;;;;;-144.22;100.00;60274.75;6250806;28;20227;-44
2022/10/29 09:12:08;;;;;;;5.33;3.97;;;;;;;-144.22;100.00;60274.75;6255004;28;20593;-42
2022/10/29 09:15:19;;;;;;;4.80;4.30;;;;;;;-144.22;100.00;60274.75;6255398;28;20622;-42
2022/10/29 09:18:55;;;;;;;3.80;3.50;;;;;;;-144.22;100.00;60274.75;6255421;28;20235;-43
2022/10/29 09:22:51;;;;;;;4.83;3.83;;;;;;;-144.22;100.00;60274.75;6255630;28;20478;-44
2022/10/29 09:26:10;;;;;;;4.10;3.60;;;;;;;-144.22;100.00;60274.75;6231562;28;20367;-43
2022/10/29 09:29:46;;;;;;;3.83;3.53;;;;;;;-144.22;100.00;60274.75;6269105;28;20242;-43
2022/10/29 09:33:08;;;;;;;3.70;3.40;;;;;;;-144.22;100.00;60274.75;6255138;28;20228;-42
2022/10/29 09:36:15;;;;;;;4.87;4.43;;;;;;;-144.22;100.00;60274.75;6254851;28;20235;-42
2022/10/29 09:39:38;;;;;;;3.60;3.27;;;;;;;-144.22;100.00;60274.75;6255466;28;20219;-42
2022/10/29 09:42:43;;;;;;;5.07;3.20;;;;;;;-144.22;100.00;60274.75;6254876;28;20266;-42
2022/10/29 09:45:59;;;;;;;4.83;3.27;;;;;;;-144.22;100.00;60274.75;6254774;28;20236;-45
2022/10/29 09:49:15;;;;;;;2.83;2.63;;;;;;;-144.22;100.00;60274.75;6255327;28;20233;-43
2022/10/29 09:52:22;;;;;;;3.17;2.87;;;;;;;-144.22;100.00;60274.75;6255236;28;20231;-42
2022/10/29 09:55:53;;;;;;;2.70;2.50;;;;;;;-144.22;100.00;60274.75;6254737;28;20319;-42
2022/10/29 09:59:10;;;;;;;2.70;2.50;;;;;;;-144.22;100.00;60274.75;6252233;28;20643;-42
2022/10/29 10:02:27;;;;;;;3.73;2.30;;;;;;;-144.22;100.00;60274.75;6235580;28;20235;-42
2022/10/29 10:05:33;;;;;;;2.70;2.50;;;;;;;-144.22;100.00;60274.75;6252794;28;20238;-43
2022/10/29 10:09:00;;;;;;;2.73;2.50;;;;;;;-144.22;100.00;60274.75;6253918;28;20595;-43
2022/10/29 10:12:06;;;;;;;3.23;2.60;;;;;;;-144.22;100.00;60274.75;6236668;28;20295;-46
2022/10/29 10:15:15;;;;;;;2.40;2.20;;;;;;;-144.22;100.00;60274.75;6253506;28;20223;-44
2022/10/29 10:18:18;;;;;;;2.80;2.60;;;;;;;-144.22;100.00;60274.75;6253642;28;20719;-42
2022/10/29 10:21:32;;;;;;;3.17;2.87;;;;;;;-144.22;100.00;60274.75;6254184;28;20226;-43
2022/10/29 10:24:37;;;;;;;3.67;3.37;;;;;;;-144.22;100.00;60274.75;6255076;28;20232;-45
2022/10/29 10:27:42;;;;;;;4.40;4.00;;;;;;;-144.22;100.00;60274.75;6253373;28;20231;-44
2022/10/29 10:31:03;;;;;;;4.10;3.70;;;;;;;-144.22;100.00;60274.75;6253515;28;20466;-43
2022/10/29 10:34:18;;;;;;;3.60;3.30;;;;;;;-144.22;100.00;60274.75;6251573;28;20239;-43
2022/10/29 10:37:23;;;;;;;5.37;4.87;;;;;;;-144.22;100.00;60274.75;6255504;28;20258;-42
2022/10/29 10:40:27;;;;;;;5.87;4.30;;;;;;;-144.22;100.00;60274.75;6254788;28;20591;-43
2022/10/29 10:43:31;;;;;;;4.80;4.40;;;;;;;-144.22;100.00;60274.75;6253450;28;20235;-42
2022/10/29 10:46:42;;;;;;;4.47;4.07;;;;;;;-144.22;100.00;60274.75;6251203;28;20704;-43
2022/10/29 10:49:46;;;;;;;4.73;4.20;;;;;;;-144.22;100.00;60274.75;6247742;28;20227;-43
2022/10/29 10:52:56;;;;;;;4.40;4.00;;;;;;;-144.22;100.00;60274.75;6242394;28;20322;-43
2022/10/29 10:56:00;;;;;;;5.70;5.20;;;;;;;-144.22;100.00;60274.75;6242883;28;20688;-43
2022/10/29 10:59:13;;;;;;;6.53;5.13;;;;;;;-144.22;100.00;60274.75;6242724;28;20380;-43
2022/10/29 11:02:38;;;;;;;4.53;4.10;;;;;;;-144.22;100.00;60274.75;6243645;28;20584;-42
2022/10/29 11:06:00;;;;;;;4.53;4.13;;;;;;;-144.22;100.00;60274.75;6231490;28;20239;-44
2022/10/29 11:09:23;;;;;;;5.57;4.77;;;;;;;-144.22;100.00;60274.75;6243119;28;20243;-45
2022/10/29 11:12:47;;;;;;;4.47;4.07;;;;;;;-144.22;100.00;60274.75;6247028;28;20296;-46
2022/10/29 11:15:53;;;;;;;4.50;4.10;;;;;;;-144.22;100.00;60274.75;6253388;28;20231;-45
2022/10/29 11:19:06;;;;;;;4.03;3.73;;;;;;;-144.22;100.00;60274.75;6234874;28;20326;-46
2022/10/29 11:22:37;;;;;;;3.83;3.53;;;;;;;-144.22;100.00;60274.75;6251974;28;20242;-44
2022/10/29 11:25:46;;;;;;;4.30;3.90;;;;;;;-144.22;100.00;60274.75;6253129;28;20230;-44
2022/10/29 11:29:08;;;;;;;4.07;3.73;;;;;;;-144.22;100.00;60274.75;6257472;28;20230;-47
2022/10/29 11:32:27;;;;;;;4.37;4.00;;;;;;;-144.22;100.00;60274.75;6258149;28;20231;-44
2022/10/29 11:35:45;;;;;;;4.37;3.97;;;;;;;-144.22;100.00;60274.75;6240035;28;20239;-44
2022/10/29 11:38:52;;;;;;;3.67;3.37;;;;;;;-144.22;100.00;60274.75;6257629;28;20277;-43
2022/10/29 11:42:02;;;;;;;3.87;3.57;;;;;;;-144.22;100.00;60274.75;6257566;28;20306;-43
2022/10/29 11:45:18;;;;;;;4.10;3.70;;;;;;;-144.22;100.00;60274.75;6256717;28;20218;-44
2022/10/29 11:48:38;;;;;;;4.00;3.70;;;;;;;-144.22;100.00;60274.75;6256718;28;20309;-43
2022/10/29 11:52:07;;;;;;;5.37;4.43;;;;;;;-144.22;100.00;60274.75;6257668;28;21033;-44
2022/10/29 11:55:29;;;;;;;6.07;5.47;;;;;;;-144.22;100.00;60274.75;6255804;28;20232;-43
2022/10/29 11:58:45;;;;;;;6.83;6.13;;;;;;;-144.22;100.00;60274.75;6256942;28;20258;-44
2022/10/29 12:02:18;;;;;;;7.33;6.13;;;;;;;-144.22;100.00;60274.75;6256138;28;20231;-43
2022/10/29 12:05:45;;;;;;;6.77;6.00;;;;;;;-144.22;100.00;60274.75;6256976;28;20231;-45
2022/10/29 12:09:07;;;;;;;9.33;7.80;;;;;;;-144.22;100.00;60274.75;6249721;28;20227;-43
2022/10/29 12:12:27;;;;;;;7.80;7.10;;;;;;;-144.22;100.00;60274.75;6256277;28;20277;-44
2022/10/29 12:15:29;;;;;;;9.10;8.17;;;;;;;-144.22;100.00;60274.75;6256675;28;20599;-43
2022/10/29 12:18:43;;;;;;;8.87;7.97;;;;;;;-144.22;100.00;60274.75;6239541;28;20383;-45
2022/10/29 12:22:13;;;;;;;9.47;8.47;;;;;;;-144.22;100.00;60274.75;6256953;28;20234;-45
2022/10/29 12:25:51;;;;;;;8.47;7.60;;;;;;;-144.22;100.00;60274.75;6256873;28;20231;-44
2022/10/29 12:29:01;;;;;;;8.87;7.97;;;;;;;-144.22;100.00;60274.75;6255449;28;20675;-44
2022/10/29 12:32:23;;;;;;;9.63;8.60;;;;;;;-144.22;100.00;60274.75;6256342;28;20229;-43
2022/10/29 12:35:37;;;;;;;11.97;10.13;;;;;;;-144.22;100.00;60274.75;6255852;28;20231;-44
2022/10/29 12:38:43;;;;;;;11.27;10.00;;;;;;;-144.22;100.00;60274.75;6256245;28;20236;-43
2022/10/29 12:41:51;;;;;;;12.37;10.27;;;;;;;-144.22;100.00;60274.75;6255628;28;20384;-43
2022/10/29 12:45:25;;;;;;;12.43;10.53;;;;;;;-144.22;100.00;60274.75;6256384;28;20300;-43
2022/10/29 12:48:39;;;;;;;11.50;9.90;;;;;;;-144.22;100.00;60274.75;6269239;28;20238;-45
2022/10/29 12:51:55;;;;;;;11.70;10.30;;;;;;;-144.22;100.00;60274.75;6255890;28;20239;-44
2022/10/29 12:55:07;;;;;;;10.80;9.70;;;;;;;-144.22;100.00;60274.75;6238113;28;20236;-46
2022/10/29 12:58:47;;;;;;;9.93;8.90;;;;;;;-144.22;100.00;60274.75;6270262;28;20262;-44
2022/10/29 13:01:50;;;;;;;10.07;8.73;;;;;;;-144.22;100.00;60274.75;6255444;28;20219;-45
2022/10/29 13:05:15;;;;;;;10.33;8.80;;;;;;;-144.22;100.00;60274.75;6255967;28;20227;-43
2022/10/29 13:08:26;;;;;;;10.47;9.23;;;;;;;-144.22;100.00;60274.75;6255440;28;20308;-45
2022/10/29 13:11:44;;;;;;;11.50;9.13;;;;;;;-144.22;100.00;60274.75;6257096;28;20588;-43
2022/10/29 13:14:54;;;;;;;11.17;9.63;;;;;;;-144.22;100.00;60274.75;6255001;28;20716;-48
2022/10/29 13:18:20;;;;;;;11.00;9.50;;;;;;;-144.22;100.00;60274.75;6255220;28;20235;-43
2022/10/29 13:22:01;;;;;;;11.63;10.43;;;;;;;-144.22;100.00;60274.75;6244859;28;20238;-45
2022/10/29 13:25:41;;;;;;;11.57;10.37;;;;;;;-144.22;100.00;60274.75;6254782;28;20236;-44
2022/10/29 13:28:50;;;;;;;11.50;10.00;;;;;;;-144.22;100.00;60274.75;6255455;28;20240;-46
2022/10/29 13:31:53;;;;;;;12.40;10.80;;;;;;;-144.22;100.00;60274.75;6255497;28;20230;-46
2022/10/29 13:35:01;;;;;;;11.33;10.17;;;;;;;-144.22;100.00;60274.75;6254217;28;20235;-43
2022/10/29 13:38:14;;;;;;;12.77;11.43;;;;;;;-144.22;100.00;60274.75;6253818;28;20222;-45
2022/10/29 13:41:28;;;;;;;10.93;9.77;;;;;;;-144.22;100.00;60274.75;6230294;28;20282;-43
2022/10/29 13:44:31;;;;;;;10.67;9.57;;;;;;;-144.22;100.00;60274.75;6251285;28;20512;-45
2022/10/29 13:47:34;;;;;;;11.50;9.63;;;;;;;-144.22;100.00;60274.75;6253942;28;20227;-44
2022/10/29 13:50:38;;;;;;;11.97;10.17;;;;;;;-144.22;100.00;60274.75;6253201;28;20231;-43
2022/10/29 13:53:53;;;;;;;10.70;9.60;;;;;;;-144.22;100.00;60274.75;6254192;28;20261;-43
2022/10/29 13:57:18;;;;;;;11.40;9.80;;;;;;;-144.22;100.00;60274.75;6254244;28;20238;-43
2022/10/29 14:00:21;;;;;;;11.50;9.83;;;;;;;-144.22;100.00;60274.75;6233248;28;20287;-46
2022/10/29 14:03:40;;;;;;;10.53;9.43;;;;;;;-144.22;100.00;60274.75;6253427;28;20245;-44
2022/10/29 14:06:45;;;;;;;11.13;9.93;;;;;;;-144.22;100.00;60274.75;6254058;28;20229;-44
2022/10/29 14:09:58;;;;;;;11.80;10.60;;;;;;;-144.22;100.00;60274.75;6255072;28;20231;-43
2022/10/29 14:13:19;;;;;;;11.93;9.77;;;;;;;-144.22;100.00;60274.75;6254343;28;20579;-43
2022/10/29 14:16:31;;;;;;;11.83;10.63;;;;;;;-144.22;100.00;60274.75;6254532;28;20247;-42